createdAt,value
2018-02-14T00:00:18.968Z,20.25
2018-02-14T00:00:52.836Z,19.42
2018-02-14T00:01:26.708Z,16.40
2018-02-14T00:02:00.615Z,16.05
2018-02-14T00:02:34.526Z,14.65
2018-02-14T00:03:08.751Z,16.40
2018-02-14T00:03:42.845Z,15.57
2018-02-14T00:04:16.771Z,15.75
2018-02-14T00:04:50.740Z,15.75
2018-02-14T00:05:24.624Z,17.10
2018-02-14T00:05:58.484Z,16.65
2018-02-14T00:06:32.373Z,15.65
2018-02-14T00:07:06.482Z,16.12
2018-02-14T00:07:40.357Z,15.80
2018-02-14T00:08:14.293Z,15.20
2018-02-14T00:08:48.223Z,16.48
2018-02-14T00:09:22.132Z,15.95
2018-02-14T00:09:56.006Z,16.00
2018-02-14T00:10:29.898Z,15.35
2018-02-14T00:11:04.111Z,15.88
2018-02-14T00:11:38.068Z,17.15
2018-02-14T00:12:12.103Z,16.23
2018-02-14T00:12:45.981Z,16.50
2018-02-14T00:13:20.021Z,14.95
2018-02-14T00:13:54.078Z,15.82
2018-02-14T00:14:27.974Z,15.93
2018-02-14T00:15:02.012Z,17.08
2018-02-14T00:15:35.917Z,16.52
2018-02-14T00:16:09.875Z,15.25
2018-02-14T00:16:43.747Z,17.67
2018-02-14T00:17:17.642Z,16.35
2018-02-14T00:17:51.617Z,16.23
2018-02-14T00:18:25.542Z,15.80
2018-02-14T00:18:59.484Z,15.25
2018-02-14T00:19:34.023Z,16.15
2018-02-14T00:20:08.061Z,15.95
2018-02-14T00:20:42.096Z,16.90
2018-02-14T00:21:16.184Z,16.45
2018-02-14T00:21:50.056Z,15.75
2018-02-14T00:22:23.960Z,17.25
2018-02-14T00:22:57.836Z,17.05
2018-02-14T00:23:31.919Z,17.60
2018-02-14T00:24:05.774Z,18.00
2018-02-14T00:24:40.096Z,17.05
2018-02-14T00:25:13.984Z,17.92
2018-02-14T00:25:48.018Z,17.77
2018-02-14T00:26:21.924Z,17.00
2018-02-14T00:26:56.003Z,18.08
2018-02-14T00:27:29.889Z,17.05
2018-02-14T00:28:03.752Z,17.17
2018-02-14T00:28:37.617Z,17.87
2018-02-14T00:29:11.484Z,16.35
2018-02-14T00:29:45.507Z,17.60
2018-02-14T00:30:19.418Z,17.35
2018-02-14T00:30:53.317Z,17.23
2018-02-14T00:31:27.210Z,18.65
2018-02-14T00:32:01.171Z,20.33
2018-02-14T00:32:35.058Z,21.52
2018-02-14T00:33:09.023Z,21.52
2018-02-14T00:33:42.904Z,21.55
2018-02-14T00:34:16.785Z,20.75
2018-02-14T00:34:50.692Z,20.62
2018-02-14T00:35:24.777Z,21.25
2018-02-14T00:35:58.700Z,20.05
2018-02-14T00:36:32.745Z,21.00
2018-02-14T00:37:06.652Z,20.90
2018-02-14T00:37:40.533Z,22.42
2018-02-14T00:38:14.410Z,22.73
2018-02-14T00:38:48.273Z,21.87
2018-02-14T00:39:22.116Z,21.65
2018-02-14T00:39:56.026Z,22.00
2018-02-14T00:40:30.037Z,20.98
2018-02-14T00:41:03.940Z,22.50
2018-02-14T00:41:37.980Z,21.33
2018-02-14T00:42:11.981Z,21.80
2018-02-14T00:42:45.893Z,21.33
2018-02-14T00:43:19.917Z,20.58
2018-02-14T00:43:53.768Z,22.17
2018-02-14T00:44:27.628Z,21.33
2018-02-14T00:45:01.602Z,22.77
2018-02-14T00:45:35.636Z,20.33
2018-02-14T00:46:09.549Z,20.45
2018-02-14T00:46:43.546Z,20.77
2018-02-14T00:47:17.413Z,19.05
2018-02-14T00:47:51.307Z,19.77
2018-02-14T00:48:25.231Z,19.30
2018-02-14T00:48:59.380Z,19.48
2018-02-14T00:49:33.298Z,20.00
2018-02-14T00:50:07.230Z,21.37
2018-02-14T00:50:41.279Z,20.70
2018-02-14T00:51:15.320Z,18.98
2018-02-14T00:51:49.211Z,19.30
2018-02-14T00:52:23.105Z,19.65
2018-02-14T00:52:56.961Z,19.25
2018-02-14T00:53:30.898Z,20.48
2018-02-14T00:54:04.951Z,20.55
2018-02-14T00:54:39.000Z,19.33
2018-02-14T00:55:12.881Z,19.80
2018-02-14T00:55:47.000Z,19.67
2018-02-14T00:56:21.084Z,20.95
2018-02-14T00:56:54.991Z,20.00
2018-02-14T00:57:28.957Z,20.05
2018-02-14T00:58:02.814Z,19.10
2018-02-14T00:58:36.786Z,20.02
2018-02-14T00:59:10.668Z,21.08
2018-02-14T00:59:44.925Z,19.37
2018-02-14T01:00:18.845Z,20.45
2018-02-14T01:00:52.781Z,20.17
2018-02-14T01:01:26.657Z,19.65
2018-02-14T01:02:00.549Z,19.75
2018-02-14T01:02:34.633Z,16.85
2018-02-14T01:03:08.580Z,19.45
2018-02-14T01:03:42.530Z,19.80
2018-02-14T01:04:16.426Z,18.48
2018-02-14T01:04:50.297Z,18.75
2018-02-14T01:05:24.423Z,17.65
2018-02-14T01:05:58.311Z,16.90
2018-02-14T01:06:32.168Z,17.83
2018-02-14T01:07:06.064Z,17.60
2018-02-14T01:07:39.965Z,17.52
2018-02-14T01:08:13.960Z,18.00
2018-02-14T01:08:47.838Z,16.73
2018-02-14T01:09:21.691Z,16.92
2018-02-14T01:09:55.548Z,17.40
2018-02-14T01:10:29.573Z,17.45
2018-02-14T01:11:03.434Z,17.15
2018-02-14T01:11:37.672Z,16.65
2018-02-14T01:12:11.590Z,18.30
2018-02-14T01:12:45.461Z,17.58
2018-02-14T01:13:19.337Z,17.55
2018-02-14T01:13:53.237Z,18.50
2018-02-14T01:14:27.110Z,16.67
2018-02-14T01:15:01.037Z,17.75
2018-02-14T01:15:34.936Z,17.17
2018-02-14T01:16:08.827Z,17.35
2018-02-14T01:16:42.854Z,17.30
2018-02-14T01:17:16.721Z,16.62
2018-02-14T01:17:50.624Z,17.10
2018-02-14T01:18:24.506Z,17.65
2018-02-14T01:18:58.371Z,17.60
2018-02-14T01:19:36.049Z,16.05
2018-02-14T01:20:10.044Z,17.70
2018-02-14T01:20:44.043Z,17.55
2018-02-14T01:21:17.976Z,17.37
2018-02-14T01:21:51.895Z,16.55
2018-02-14T01:22:25.763Z,16.83
2018-02-14T01:22:59.687Z,17.30
2018-02-14T01:23:33.742Z,16.05
2018-02-14T01:24:07.661Z,16.92
2018-02-14T01:24:41.560Z,17.33
2018-02-14T01:25:15.438Z,16.95
2018-02-14T01:25:49.348Z,16.55
2018-02-14T01:26:23.207Z,16.00
2018-02-14T01:26:57.117Z,17.83
2018-02-14T01:27:31.223Z,15.32
2018-02-14T01:28:05.321Z,17.33
2018-02-14T01:28:39.239Z,17.55
2018-02-14T01:29:13.134Z,16.60
2018-02-14T01:29:46.985Z,17.10
2018-02-14T01:30:20.847Z,17.73
2018-02-14T01:30:54.752Z,16.65
2018-02-14T01:31:28.792Z,17.65
2018-02-14T01:32:02.655Z,16.70
2018-02-14T01:32:36.544Z,16.90
2018-02-14T01:33:10.417Z,15.18
2018-02-14T01:33:44.276Z,15.43
2018-02-14T01:34:18.228Z,16.30
2018-02-14T01:34:52.129Z,16.50
2018-02-14T01:35:26.021Z,16.35
2018-02-14T01:35:59.957Z,17.40
2018-02-14T01:36:33.860Z,16.70
2018-02-14T01:37:07.740Z,17.80
2018-02-14T01:37:41.612Z,15.88
2018-02-14T01:38:15.493Z,17.05
2018-02-14T01:38:49.368Z,16.83
2018-02-14T01:39:23.447Z,16.83
2018-02-14T01:39:57.324Z,17.55
2018-02-14T01:40:31.207Z,15.60
2018-02-14T01:41:05.222Z,15.88
2018-02-14T01:41:39.132Z,16.20
2018-02-14T01:42:12.996Z,15.10
2018-02-14T01:42:46.834Z,15.15
2018-02-14T01:43:20.728Z,15.50
2018-02-14T01:43:54.597Z,16.27
2018-02-14T01:44:28.472Z,15.93
2018-02-14T01:45:02.345Z,15.07
2018-02-14T01:45:36.243Z,16.15
2018-02-14T01:46:10.132Z,15.02
2018-02-14T01:46:44.184Z,16.08
2018-02-14T01:47:18.112Z,16.00
2018-02-14T01:47:52.119Z,16.45
2018-02-14T01:48:26.025Z,16.10
2018-02-14T01:48:59.918Z,15.85
2018-02-14T01:49:33.861Z,16.00
2018-02-14T01:50:07.759Z,15.60
2018-02-14T01:50:41.653Z,16.83
2018-02-14T01:51:15.953Z,15.63
2018-02-14T01:51:49.923Z,15.35
2018-02-14T01:52:23.815Z,14.55
2018-02-14T01:52:57.841Z,14.75
2018-02-14T01:53:31.733Z,15.25
2018-02-14T01:54:05.746Z,15.02
2018-02-14T01:54:39.663Z,15.77
2018-02-14T01:55:13.898Z,14.95
2018-02-14T01:55:47.829Z,15.98
2018-02-14T01:56:21.688Z,16.00
2018-02-14T01:56:55.629Z,15.82
2018-02-14T01:57:29.484Z,16.98
2018-02-14T01:58:03.371Z,16.00
2018-02-14T01:58:37.348Z,15.15
2018-02-14T01:59:11.203Z,16.10
2018-02-14T01:59:45.272Z,17.50
2018-02-14T02:00:19.531Z,15.48
2018-02-14T02:00:53.444Z,15.85
2018-02-14T02:01:27.355Z,14.95
2018-02-14T02:02:01.236Z,15.43
2018-02-14T02:02:35.162Z,16.02
2018-02-14T02:03:09.291Z,15.45
2018-02-14T02:03:43.158Z,17.25
2018-02-14T02:04:17.012Z,14.80
2018-02-14T02:04:50.905Z,15.23
2018-02-14T02:05:24.832Z,16.30
2018-02-14T02:05:58.801Z,15.55
2018-02-14T02:06:32.680Z,16.73
2018-02-14T02:07:06.556Z,16.55
2018-02-14T02:07:40.448Z,16.12
2018-02-14T02:08:14.352Z,15.77
2018-02-14T02:08:48.442Z,16.33
2018-02-14T02:09:22.295Z,15.80
2018-02-14T02:09:56.147Z,15.85
2018-02-14T02:10:30.037Z,16.15
2018-02-14T02:11:03.948Z,15.65
2018-02-14T02:11:37.937Z,16.70
2018-02-14T02:12:11.869Z,15.75
2018-02-14T02:12:45.730Z,16.15
2018-02-14T02:13:19.633Z,16.52
2018-02-14T02:13:53.756Z,16.50
2018-02-14T02:14:27.695Z,16.15
2018-02-14T02:15:01.556Z,16.30
2018-02-14T02:15:35.499Z,17.02
2018-02-14T02:16:09.542Z,16.75
2018-02-14T02:16:43.399Z,15.13
2018-02-14T02:17:17.391Z,15.23
2018-02-14T02:17:51.295Z,15.75
2018-02-14T02:18:25.344Z,15.60
2018-02-14T02:18:59.447Z,16.70
2018-02-14T02:19:33.321Z,16.85
2018-02-14T02:20:07.517Z,16.50
2018-02-14T02:20:41.440Z,15.52
2018-02-14T02:21:15.393Z,16.33
2018-02-14T02:21:49.280Z,15.65
2018-02-14T02:22:23.139Z,16.00
2018-02-14T02:22:57.000Z,15.52
2018-02-14T02:23:30.991Z,16.02
2018-02-14T02:24:04.963Z,16.00
2018-02-14T02:24:38.857Z,15.48
2018-02-14T02:25:12.719Z,17.15
2018-02-14T02:25:46.749Z,15.57
2018-02-14T02:26:20.942Z,15.77
2018-02-14T02:26:54.869Z,16.98
2018-02-14T02:27:29.007Z,17.27
2018-02-14T02:28:02.880Z,16.05
2018-02-14T02:28:36.836Z,14.48
2018-02-14T02:29:10.876Z,16.27
2018-02-14T02:29:44.938Z,14.82
2018-02-14T02:30:18.849Z,16.42
2018-02-14T02:30:53.276Z,16.12
2018-02-14T02:31:27.155Z,15.10
2018-02-14T02:32:01.040Z,15.55
2018-02-14T02:32:34.973Z,16.52
2018-02-14T02:33:08.942Z,15.75
2018-02-14T02:33:42.813Z,16.55
2018-02-14T02:34:16.722Z,16.40
2018-02-14T02:34:50.906Z,17.08
2018-02-14T02:35:24.797Z,16.98
2018-02-14T02:35:58.684Z,15.43
2018-02-14T02:36:32.577Z,15.80
2018-02-14T02:37:06.664Z,15.57
2018-02-14T02:37:40.566Z,16.55
2018-02-14T02:38:14.601Z,15.60
2018-02-14T02:38:48.611Z,16.05
2018-02-14T02:39:28.457Z,15.07
2018-02-14T02:40:08.202Z,16.45
2018-02-14T02:40:42.267Z,16.45
2018-02-14T02:41:16.160Z,16.60
2018-02-14T02:41:50.081Z,16.60
2018-02-14T02:42:24.160Z,16.60
2018-02-14T02:42:58.022Z,16.02
2018-02-14T02:43:31.912Z,16.00
2018-02-14T02:44:05.868Z,16.33
2018-02-14T02:44:39.761Z,16.58
2018-02-14T02:45:13.937Z,17.45
2018-02-14T02:45:47.834Z,16.40
2018-02-14T02:46:21.729Z,15.48
2018-02-14T02:46:55.679Z,15.60
2018-02-14T02:47:29.737Z,16.40
2018-02-14T02:48:03.615Z,16.17
2018-02-14T02:48:37.502Z,16.85
2018-02-14T02:49:11.377Z,15.80
2018-02-14T02:49:45.397Z,17.23
2018-02-14T02:50:19.305Z,16.70
2018-02-14T02:50:53.187Z,16.67
2018-02-14T02:51:27.108Z,15.55
2018-02-14T02:52:00.983Z,16.77
2018-02-14T02:52:34.991Z,17.20
2018-02-14T02:53:08.851Z,17.10
2018-02-14T02:53:42.910Z,17.23
2018-02-14T02:54:16.762Z,16.37
2018-02-14T02:54:50.685Z,14.93
2018-02-14T02:55:24.557Z,16.45
2018-02-14T02:55:58.473Z,15.35
2018-02-14T02:56:32.361Z,15.48
2018-02-14T02:57:06.303Z,15.40
2018-02-14T02:57:40.331Z,16.50
2018-02-14T02:58:14.176Z,17.77
2018-02-14T02:58:48.096Z,16.77
2018-02-14T02:59:22.130Z,17.70
2018-02-14T02:59:56.137Z,16.35
2018-02-14T03:00:30.024Z,15.90
2018-02-14T03:01:04.037Z,17.10
2018-02-14T03:01:37.968Z,16.40
2018-02-14T03:02:12.119Z,16.08
2018-02-14T03:02:46.045Z,17.40
2018-02-14T03:03:19.952Z,17.08
2018-02-14T03:03:53.843Z,17.15
2018-02-14T03:04:27.751Z,15.68
2018-02-14T03:05:01.800Z,16.98
2018-02-14T03:05:35.668Z,16.85
2018-02-14T03:06:09.528Z,17.27
2018-02-14T03:06:43.484Z,17.48
2018-02-14T03:07:17.330Z,16.08
2018-02-14T03:07:51.204Z,16.75
2018-02-14T03:08:25.102Z,16.20
2018-02-14T03:08:59.065Z,16.60
2018-02-14T03:09:32.913Z,16.48
2018-02-14T03:10:06.792Z,16.60
2018-02-14T03:10:40.749Z,16.30
2018-02-14T03:11:14.616Z,17.08
2018-02-14T03:11:48.747Z,17.27
2018-02-14T03:12:22.620Z,15.50
2018-02-14T03:12:56.481Z,17.37
2018-02-14T03:13:30.340Z,16.85
2018-02-14T03:14:04.428Z,16.52
2018-02-14T03:14:38.348Z,18.75
2018-02-14T03:15:12.255Z,17.05
2018-02-14T03:15:46.108Z,17.50
2018-02-14T03:16:19.977Z,16.65
2018-02-14T03:16:53.886Z,17.15
2018-02-14T03:17:27.739Z,17.55
2018-02-14T03:18:01.620Z,16.37
2018-02-14T03:18:35.525Z,17.95
2018-02-14T03:19:09.392Z,17.30
2018-02-14T03:19:43.249Z,17.05
2018-02-14T03:20:17.296Z,18.10
2018-02-14T03:20:51.193Z,16.62
2018-02-14T03:21:25.200Z,17.20
2018-02-14T03:21:59.293Z,17.52
2018-02-14T03:22:33.161Z,16.17
2018-02-14T03:23:07.061Z,17.25
2018-02-14T03:23:40.952Z,15.50
2018-02-14T03:24:14.812Z,16.80
2018-02-14T03:24:48.703Z,17.50
2018-02-14T03:25:22.652Z,16.20
2018-02-14T03:25:56.519Z,16.98
2018-02-14T03:26:30.386Z,16.33
2018-02-14T03:27:04.535Z,17.48
2018-02-14T03:27:38.394Z,16.42
2018-02-14T03:28:12.275Z,16.48
2018-02-14T03:28:46.120Z,16.52
2018-02-14T03:29:20.113Z,16.98
2018-02-14T03:29:53.968Z,17.02
2018-02-14T03:30:27.838Z,16.27
2018-02-14T03:31:01.697Z,17.45
2018-02-14T03:31:35.561Z,17.02
2018-02-14T03:32:09.412Z,16.80
2018-02-14T03:32:43.280Z,16.98
2018-02-14T03:33:17.152Z,15.52
2018-02-14T03:33:50.994Z,17.02
2018-02-14T03:34:24.866Z,15.88
2018-02-14T03:34:58.721Z,17.35
2018-02-14T03:35:32.601Z,17.02
2018-02-14T03:36:06.449Z,17.30
2018-02-14T03:36:40.300Z,15.98
2018-02-14T03:37:14.169Z,17.45
2018-02-14T03:37:48.025Z,16.25
2018-02-14T03:38:21.924Z,17.40
2018-02-14T03:38:55.782Z,17.02
2018-02-14T03:39:29.635Z,16.00
2018-02-14T03:40:03.495Z,17.15
2018-02-14T03:40:37.344Z,16.58
2018-02-14T03:41:11.298Z,17.10
2018-02-14T03:41:45.196Z,16.45
2018-02-14T03:42:19.050Z,16.52
2018-02-14T03:42:52.900Z,16.80
2018-02-14T03:43:26.813Z,15.75
2018-02-14T03:44:00.670Z,18.23
2018-02-14T03:44:34.529Z,16.45
2018-02-14T03:45:08.404Z,17.23
2018-02-14T03:45:42.264Z,16.90
2018-02-14T03:46:16.122Z,15.88
2018-02-14T03:46:49.980Z,16.15
2018-02-14T03:47:24.048Z,16.65
2018-02-14T03:47:57.909Z,17.08
2018-02-14T03:48:31.796Z,17.67
2018-02-14T03:49:05.661Z,15.60
2018-02-14T03:49:39.553Z,16.12
2018-02-14T03:50:13.424Z,17.23
2018-02-14T03:50:47.280Z,16.25
2018-02-14T03:51:21.319Z,16.73
2018-02-14T03:51:55.310Z,18.65
2018-02-14T03:52:29.216Z,17.40
2018-02-14T03:53:03.072Z,17.60
2018-02-14T03:53:36.996Z,16.80
2018-02-14T03:54:11.192Z,16.33
2018-02-14T03:54:45.095Z,17.40
2018-02-14T03:55:18.973Z,16.08
2018-02-14T03:55:53.024Z,17.30
2018-02-14T03:56:26.947Z,16.10
2018-02-14T03:57:00.993Z,17.70
2018-02-14T03:57:34.919Z,16.17
2018-02-14T03:58:08.768Z,17.15
2018-02-14T03:58:42.638Z,17.20
2018-02-14T03:59:16.562Z,18.33
2018-02-14T03:59:50.447Z,17.65
2018-02-14T04:00:24.326Z,16.40
2018-02-14T04:00:58.195Z,17.30
2018-02-14T04:01:32.254Z,16.70
2018-02-14T04:02:06.277Z,17.65
2018-02-14T04:02:40.128Z,17.30
2018-02-14T04:03:14.157Z,17.33
2018-02-14T04:03:48.012Z,16.55
2018-02-14T04:04:22.036Z,17.33
2018-02-14T04:04:55.956Z,16.45
2018-02-14T04:05:29.837Z,16.90
2018-02-14T04:06:04.098Z,15.38
2018-02-14T04:06:37.965Z,17.35
2018-02-14T04:07:11.828Z,17.58
2018-02-14T04:07:45.960Z,15.70
2018-02-14T04:08:19.836Z,16.50
2018-02-14T04:08:53.717Z,16.98
2018-02-14T04:09:27.707Z,16.27
2018-02-14T04:10:01.621Z,17.23
2018-02-14T04:10:35.471Z,16.92
2018-02-14T04:11:09.390Z,17.00
2018-02-14T04:11:43.236Z,17.05
2018-02-14T04:12:17.204Z,16.40
2018-02-14T04:12:51.066Z,17.25
2018-02-14T04:13:24.933Z,15.93
2018-02-14T04:13:59.072Z,16.05
2018-02-14T04:14:32.918Z,16.48
2018-02-14T04:15:06.876Z,16.25
2018-02-14T04:15:40.936Z,16.73
2018-02-14T04:16:14.869Z,15.60
2018-02-14T04:16:48.765Z,16.85
2018-02-14T04:17:22.659Z,16.70
2018-02-14T04:17:56.542Z,16.95
2018-02-14T04:18:30.607Z,16.83
2018-02-14T04:19:04.490Z,17.62
2018-02-14T04:19:38.647Z,16.58
2018-02-14T04:20:12.778Z,16.37
2018-02-14T04:20:46.629Z,16.92
2018-02-14T04:21:20.644Z,17.25
2018-02-14T04:21:54.507Z,15.15
2018-02-14T04:22:28.416Z,16.48
2018-02-14T04:23:02.424Z,15.65
2018-02-14T04:23:36.282Z,17.52
2018-02-14T04:24:10.165Z,16.70
2018-02-14T04:24:44.024Z,16.05
2018-02-14T04:25:17.882Z,15.07
2018-02-14T04:25:51.752Z,16.27
2018-02-14T04:26:25.789Z,14.90
2018-02-14T04:26:59.644Z,15.95
2018-02-14T04:27:33.508Z,16.10
2018-02-14T04:28:22.368Z,15.38
2018-02-14T04:28:56.315Z,16.35
2018-02-14T04:29:30.185Z,15.82
2018-02-14T04:30:04.223Z,16.98
2018-02-14T04:30:38.106Z,16.85
2018-02-14T04:31:11.973Z,15.38
2018-02-14T04:31:45.944Z,16.23
2018-02-14T04:32:19.855Z,17.05
2018-02-14T04:32:53.712Z,15.10
2018-02-14T04:33:27.790Z,16.40
2018-02-14T04:34:01.686Z,15.55
2018-02-14T04:34:35.578Z,16.95
2018-02-14T04:35:09.428Z,16.60
2018-02-14T04:35:43.782Z,15.60
2018-02-14T04:36:17.641Z,17.25
2018-02-14T04:36:51.505Z,15.75
2018-02-14T04:37:25.368Z,16.55
2018-02-14T04:37:59.223Z,16.60
2018-02-14T04:38:33.361Z,16.62
2018-02-14T04:39:07.216Z,14.93
2018-02-14T04:39:41.984Z,16.23
2018-02-14T04:40:15.844Z,15.98
2018-02-14T04:40:49.699Z,15.70
2018-02-14T04:41:23.560Z,17.42
2018-02-14T04:41:57.475Z,16.42
2018-02-14T04:42:31.332Z,16.75
2018-02-14T04:43:05.197Z,16.75
2018-02-14T04:43:39.282Z,16.92
2018-02-14T04:44:13.331Z,15.82
2018-02-14T04:44:47.208Z,15.63
2018-02-14T04:45:21.349Z,16.40
2018-02-14T04:45:55.212Z,16.70
2018-02-14T04:46:29.230Z,15.73
2018-02-14T04:47:03.103Z,17.48
2018-02-14T04:47:36.967Z,15.70
2018-02-14T04:48:10.826Z,16.90
2018-02-14T04:48:44.680Z,15.82
2018-02-14T04:49:18.676Z,16.02
2018-02-14T04:49:52.547Z,16.20
2018-02-14T04:50:26.420Z,15.98
2018-02-14T04:51:00.293Z,16.40
2018-02-14T04:51:34.188Z,15.95
2018-02-14T04:52:08.079Z,17.08
2018-02-14T04:52:42.000Z,16.92
2018-02-14T04:53:15.888Z,16.30
2018-02-14T04:53:49.872Z,16.58
2018-02-14T04:54:23.783Z,15.60
2018-02-14T04:54:58.066Z,15.73
2018-02-14T04:55:31.928Z,14.93
2018-02-14T04:56:05.772Z,16.95
2018-02-14T04:56:39.694Z,15.60
2018-02-14T04:57:13.544Z,16.85
2018-02-14T04:57:47.447Z,16.80
2018-02-14T04:58:21.347Z,17.10
2018-02-14T04:58:55.230Z,16.00
2018-02-14T04:59:29.168Z,16.00
2018-02-14T05:00:03.060Z,16.17
2018-02-14T05:00:37.034Z,16.50
2018-02-14T05:01:11.223Z,15.82
2018-02-14T05:01:45.079Z,16.83
2018-02-14T05:02:18.945Z,16.02
2018-02-14T05:02:52.800Z,16.52
2018-02-14T05:03:26.652Z,16.05
2018-02-14T05:04:00.705Z,15.48
2018-02-14T05:04:34.568Z,14.93
2018-02-14T05:05:08.601Z,18.23
2018-02-14T05:05:42.460Z,16.67
2018-02-14T05:06:16.311Z,17.45
2018-02-14T05:06:50.166Z,16.98
2018-02-14T05:07:24.098Z,16.95
2018-02-14T05:07:57.962Z,18.15
2018-02-14T05:08:31.881Z,16.80
2018-02-14T05:09:05.744Z,17.27
2018-02-14T05:09:39.651Z,16.12
2018-02-14T05:10:13.670Z,16.40
2018-02-14T05:10:47.524Z,15.90
2018-02-14T05:11:21.673Z,17.30
2018-02-14T05:11:55.669Z,15.25
2018-02-14T05:12:29.550Z,15.23
2018-02-14T05:13:03.415Z,17.15
2018-02-14T05:13:37.314Z,16.95
2018-02-14T05:14:11.181Z,17.23
2018-02-14T05:14:45.038Z,16.62
2018-02-14T05:15:19.057Z,17.65
2018-02-14T05:15:53.149Z,16.08
2018-02-14T05:16:27.679Z,16.20
2018-02-14T05:17:01.568Z,16.90
2018-02-14T05:17:35.432Z,16.45
2018-02-14T05:18:09.379Z,15.70
2018-02-14T05:18:43.237Z,16.05
2018-02-14T05:19:17.132Z,15.68
2018-02-14T05:19:50.991Z,16.50
2018-02-14T05:20:24.871Z,16.37
2018-02-14T05:20:58.796Z,16.10
2018-02-14T05:21:32.819Z,17.92
2018-02-14T05:22:06.792Z,16.77
2018-02-14T05:22:40.653Z,17.05
2018-02-14T05:23:14.584Z,16.55
2018-02-14T05:23:48.447Z,14.85
2018-02-14T05:24:22.473Z,17.02
2018-02-14T05:24:56.325Z,15.90
2018-02-14T05:25:30.370Z,17.23
2018-02-14T05:26:04.231Z,16.58
2018-02-14T05:26:38.359Z,16.45
2018-02-14T05:27:12.249Z,16.42
2018-02-14T05:27:46.220Z,16.45
2018-02-14T05:28:20.350Z,16.90
2018-02-14T05:28:54.216Z,15.02
2018-02-14T05:29:28.082Z,16.05
2018-02-14T05:30:01.928Z,17.40
2018-02-14T05:30:35.925Z,16.10
2018-02-14T05:31:10.034Z,16.55
2018-02-14T05:31:43.922Z,16.00
2018-02-14T05:32:18.632Z,17.52
2018-02-14T05:32:52.486Z,17.62
2018-02-14T05:33:26.634Z,16.75
2018-02-14T05:34:00.520Z,17.77
2018-02-14T05:34:34.432Z,16.25
2018-02-14T05:35:08.318Z,16.65
2018-02-14T05:35:42.184Z,17.37
2018-02-14T05:36:16.842Z,16.12
2018-02-14T05:36:50.686Z,17.10
2018-02-14T05:37:24.583Z,17.42
2018-02-14T05:37:58.514Z,16.85
2018-02-14T05:38:32.613Z,16.55
2018-02-14T05:39:06.476Z,17.20
2018-02-14T05:39:40.451Z,16.55
2018-02-14T05:40:14.510Z,17.42
2018-02-14T05:40:48.501Z,15.55
2018-02-14T05:41:22.394Z,16.95
2018-02-14T05:41:56.435Z,16.70
2018-02-14T05:42:30.318Z,16.55
2018-02-14T05:43:04.184Z,16.42
2018-02-14T05:43:38.043Z,18.55
2018-02-14T05:44:12.098Z,16.48
2018-02-14T05:44:45.951Z,15.93
2018-02-14T05:45:19.922Z,16.05
2018-02-14T05:45:53.865Z,16.08
2018-02-14T05:46:27.968Z,18.10
2018-02-14T05:47:01.916Z,16.23
2018-02-14T05:47:35.801Z,17.05
2018-02-14T05:48:09.671Z,17.75
2018-02-14T05:48:43.546Z,16.87
2018-02-14T05:49:17.470Z,16.87
2018-02-14T05:49:51.765Z,17.12
2018-02-14T05:50:25.637Z,17.50
2018-02-14T05:50:59.528Z,17.23
2018-02-14T05:51:33.455Z,18.27
2018-02-14T05:52:07.426Z,15.70
2018-02-14T05:52:41.429Z,17.67
2018-02-14T05:53:15.338Z,16.70
2018-02-14T05:53:49.183Z,17.80
2018-02-14T05:54:23.055Z,16.48
2018-02-14T05:54:57.029Z,16.52
2018-02-14T05:55:30.892Z,16.90
2018-02-14T05:56:04.789Z,16.73
2018-02-14T05:56:38.651Z,17.62
2018-02-14T05:57:12.607Z,16.50
2018-02-14T05:57:46.454Z,17.85
2018-02-14T05:58:20.325Z,17.08
2018-02-14T05:58:54.180Z,18.00
2018-02-14T05:59:28.045Z,18.20
2018-02-14T06:00:01.928Z,17.48
2018-02-14T06:00:35.872Z,17.87
2018-02-14T06:01:09.820Z,17.70
2018-02-14T06:01:43.767Z,17.85
2018-02-14T06:02:17.631Z,16.42
2018-02-14T06:02:51.512Z,16.30
2018-02-14T06:03:25.365Z,18.30
2018-02-14T06:03:59.439Z,16.87
2018-02-14T06:04:33.320Z,18.73
2018-02-14T06:05:07.200Z,17.65
2018-02-14T06:05:41.055Z,17.45
2018-02-14T06:06:15.001Z,16.85
2018-02-14T06:06:48.853Z,16.62
2018-02-14T06:07:22.720Z,17.05
2018-02-14T06:07:56.614Z,18.48
2018-02-14T06:08:30.552Z,17.37
2018-02-14T06:09:04.420Z,18.00
2018-02-14T06:09:38.284Z,18.80
2018-02-14T06:10:12.140Z,17.40
2018-02-14T06:10:46.494Z,17.40
2018-02-14T06:11:20.365Z,19.50
2018-02-14T06:11:54.272Z,18.55
2018-02-14T06:12:28.189Z,18.75
2018-02-14T06:13:02.045Z,19.60
2018-02-14T06:13:36.373Z,18.08
2018-02-14T06:14:10.224Z,17.98
2018-02-14T06:14:44.161Z,19.65
2018-02-14T06:15:18.122Z,18.12
2018-02-14T06:15:52.101Z,16.50
2018-02-14T06:16:26.012Z,17.73
2018-02-14T06:17:00.101Z,18.45
2018-02-14T06:17:33.962Z,17.33
2018-02-14T06:18:07.828Z,18.27
2018-02-14T06:18:41.702Z,19.15
2018-02-14T06:19:15.549Z,18.30
2018-02-14T06:19:49.408Z,17.30
2018-02-14T06:20:23.272Z,18.67
2018-02-14T06:20:57.132Z,19.40
2018-02-14T06:21:31.013Z,19.98
2018-02-14T06:22:05.109Z,18.75
2018-02-14T06:22:39.116Z,16.95
2018-02-14T06:23:13.252Z,17.87
2018-02-14T06:23:47.113Z,19.12
2018-02-14T06:24:21.111Z,18.65
2018-02-14T06:24:55.094Z,17.67
2018-02-14T06:25:29.055Z,17.83
2018-02-14T06:26:02.986Z,19.08
2018-02-14T06:26:37.685Z,20.35
2018-02-14T06:27:11.548Z,17.98
2018-02-14T06:27:45.396Z,17.70
2018-02-14T06:28:19.264Z,18.25
2018-02-14T06:28:54.451Z,16.55
2018-02-14T06:29:28.421Z,18.58
2018-02-14T06:30:02.349Z,17.45
2018-02-14T06:30:36.335Z,18.87
2018-02-14T06:31:10.205Z,18.70
2018-02-14T06:31:44.121Z,18.75
2018-02-14T06:32:17.992Z,18.75
2018-02-14T06:32:51.988Z,19.58
2018-02-14T06:33:25.844Z,18.60
2018-02-14T06:33:59.850Z,18.35
2018-02-14T06:34:33.900Z,18.02
2018-02-14T06:35:07.796Z,18.85
2018-02-14T06:35:41.689Z,18.45
2018-02-14T06:36:15.820Z,17.30
2018-02-14T06:36:49.691Z,20.08
2018-02-14T06:37:23.664Z,18.40
2018-02-14T06:37:57.511Z,18.17
2018-02-14T06:38:31.478Z,18.10
2018-02-14T06:39:05.413Z,19.48
2018-02-14T06:39:39.378Z,18.62
2018-02-14T06:40:13.227Z,18.20
2018-02-14T06:40:47.088Z,18.92
2018-02-14T06:41:21.061Z,18.33
2018-02-14T06:41:54.952Z,17.92
2018-02-14T06:42:28.831Z,20.08
2018-02-14T06:43:02.800Z,19.15
2018-02-14T06:43:36.725Z,19.20
2018-02-14T06:44:10.776Z,18.10
2018-02-14T06:44:44.649Z,17.50
2018-02-14T06:45:18.508Z,18.90
2018-02-14T06:45:52.406Z,18.67
2018-02-14T06:46:26.400Z,19.17
2018-02-14T06:47:00.408Z,19.67
2018-02-14T06:47:34.342Z,19.73
2018-02-14T06:48:08.357Z,19.52
2018-02-14T06:48:42.303Z,18.98
2018-02-14T06:49:16.388Z,18.52
2018-02-14T06:49:50.419Z,17.98
2018-02-14T06:50:24.276Z,18.62
2018-02-14T06:50:58.131Z,18.75
2018-02-14T06:51:32.041Z,18.23
2018-02-14T06:52:06.072Z,18.33
2018-02-14T06:52:39.972Z,19.35
2018-02-14T06:53:14.138Z,19.98
2018-02-14T06:53:48.038Z,20.40
2018-02-14T06:54:21.904Z,18.85
2018-02-14T06:54:55.860Z,20.65
2018-02-14T06:55:29.766Z,18.70
2018-02-14T06:56:03.745Z,18.70
2018-02-14T06:56:37.607Z,19.50
2018-02-14T06:57:11.506Z,18.60
2018-02-14T06:57:45.383Z,19.48
2018-02-14T06:58:19.282Z,18.92
2018-02-14T06:58:53.665Z,21.33
2018-02-14T06:59:27.860Z,19.17
2018-02-14T07:00:01.709Z,19.05
2018-02-14T07:00:35.568Z,19.67
2018-02-14T07:01:09.465Z,18.67
2018-02-14T07:01:44.064Z,20.15
2018-02-14T07:02:18.539Z,18.20
2018-02-14T07:02:52.439Z,19.45
2018-02-14T07:03:26.415Z,19.35
2018-02-14T07:04:00.426Z,19.60
2018-02-14T07:04:34.352Z,19.65
2018-02-14T07:05:08.176Z,17.70
2018-02-14T07:05:42.044Z,20.02
2018-02-14T07:06:16.442Z,20.33
2018-02-14T07:06:50.317Z,20.83
2018-02-14T07:07:24.182Z,21.40
2018-02-14T07:07:58.051Z,20.33
2018-02-14T07:08:31.911Z,20.90
2018-02-14T07:09:05.777Z,20.77
2018-02-14T07:09:39.641Z,18.42
2018-02-14T07:10:13.789Z,19.60
2018-02-14T07:10:47.843Z,19.55
2018-02-14T07:11:21.704Z,19.92
2018-02-14T07:11:55.651Z,21.12
2018-02-14T07:12:29.573Z,20.27
2018-02-14T07:13:03.430Z,20.73
2018-02-14T07:13:37.412Z,21.30
2018-02-14T07:14:11.335Z,19.37
2018-02-14T07:14:45.197Z,19.08
2018-02-14T07:15:19.063Z,19.60
2018-02-14T07:15:52.929Z,20.50
2018-02-14T07:16:26.850Z,22.25
2018-02-14T07:17:00.993Z,19.55
2018-02-14T07:17:34.949Z,20.00